メインページ
METAR-TAF:

METAR-TAF

空港 :

ブリスベン空港

ブリスベン, オーストラリア

緯度: 27-23S, 経度: 153-06E, 海抜: 4m

現時点の気象観測

当レポートは44分前の22:30(UTC)に作成
北東の風 7kt
気温 25°C
湿度 54%
気圧 1015 hPa
視程10km以上
高度2600ftの雲はほとんどない
高度3500ftの雲は散在している

METAR: YBBN 112230Z 05007KT 9999 FEW026 SCT035 25/15 Q1015 NOSIG

時間: 09:14 (23:14 UTC)

予報

当レポートは6時間10分前の17:04(UTC)に作成
予報は11日の 18時(UTC)から 12日の 24時(UTC)まで有効
南/南西の風 6kt
視程10km以上
高度2000ftの雲は散在している
11日の 2200時(UTC)から
東/北東の風 8kt
視程10km以上
高度3000ftの雲は散在している
12日の 0100時(UTC)から
北東の風 13kt
視程10km以上
高度3000ftの雲はほとんどない
12日の 1100時(UTC)から
北/北東の風 8kt
視程10km以上
高度2500ftの雲はほとんどない
12日の 1800時(UTC)から
南/南西の風 6kt
視程10km以上
高度2000ftの雲はほとんどない
12日の 2100時(UTC)から
北/北東の風 10kt
視程10km以上
高度2500ftの雲はほとんどない

TAF: YBBN 111704Z 1118/1224 21006KT 9999 SCT020 FM112200 07008KT 9999 SCT030 FM120100 05013KT 9999 FEW030 FM121100 02008KT 9999 FEW025 FM121800 21006KT 9999 FEW020 FM122100 02010KT 9999 FEW025

4,000以上の空港の気象観測と天気予報(METAR報とTAF報)

利用可能な観測所は地図上に黄色い丸と赤い丸で示す。

丸の上にカーソルを重ねると観測所名を参照できる。

次にクリックすると気象観測と天気予報を参照できる。

マップの切り替え:黒色「×」印の緑ボタンをクリックして拡大、「-」印の緑ボタンをクリックして縮小、緑色の三角印をクリックして隣りの地図に切り替え


METAR-TAF: